createdAt,value
2019-03-15T00:02:27.930Z,1.90
2019-03-15T00:04:56.934Z,2.23
2019-03-15T00:07:25.476Z,1.90
2019-03-15T00:09:54.416Z,1.90
2019-03-15T00:12:23.364Z,2.37
2019-03-15T00:14:52.354Z,1.90
2019-03-15T00:17:21.313Z,2.67
2019-03-15T00:19:50.266Z,1.90
2019-03-15T00:22:19.232Z,1.70
2019-03-15T00:24:48.360Z,2.20
2019-03-15T00:27:17.238Z,2.30
2019-03-15T00:29:46.262Z,2.30
2019-03-15T00:32:16.591Z,2.40
2019-03-15T00:34:45.163Z,2.33
2019-03-15T00:37:14.205Z,1.67
2019-03-15T00:39:43.144Z,1.80
2019-03-15T00:42:12.142Z,2.37
2019-03-15T00:44:41.433Z,2.40
2019-03-15T00:47:10.501Z,2.30
2019-03-15T00:49:39.015Z,2.07
2019-03-15T00:52:07.980Z,2.00
2019-03-15T00:54:36.541Z,1.30
2019-03-15T00:57:05.086Z,2.37
2019-03-15T00:59:34.110Z,1.93
2019-03-15T01:02:03.160Z,2.27
2019-03-15T01:04:32.252Z,2.43
2019-03-15T01:07:01.223Z,1.83
2019-03-15T01:09:30.373Z,2.70
2019-03-15T01:11:59.377Z,2.50
2019-03-15T01:14:28.362Z,2.50
2019-03-15T01:16:57.334Z,2.63
2019-03-15T01:19:26.316Z,3.13
2019-03-15T01:21:55.391Z,1.93
2019-03-15T01:24:24.519Z,2.50
2019-03-15T01:26:53.496Z,1.63
2019-03-15T01:29:22.576Z,2.43
2019-03-15T01:31:51.572Z,2.07
2019-03-15T01:34:20.570Z,2.10
2019-03-15T01:36:49.350Z,2.00
2019-03-15T01:39:18.417Z,2.30
2019-03-15T01:41:47.372Z,1.40
2019-03-15T01:44:16.385Z,1.80
2019-03-15T01:46:45.425Z,1.70
2019-03-15T01:49:14.389Z,1.93
2019-03-15T01:51:43.466Z,1.03
2019-03-15T01:54:13.584Z,2.20
2019-03-15T01:56:42.301Z,2.10
2019-03-15T01:59:11.289Z,1.73
2019-03-15T02:01:40.510Z,1.97
2019-03-15T02:04:09.497Z,1.33
2019-03-15T02:06:38.385Z,2.20
2019-03-15T02:09:09.279Z,1.67
2019-03-15T02:11:38.397Z,2.43
2019-03-15T02:14:07.506Z,2.37
2019-03-15T02:16:36.081Z,1.90
2019-03-15T02:19:04.659Z,1.77
2019-03-15T02:21:33.545Z,1.90
2019-03-15T02:24:02.599Z,2.10
2019-03-15T02:26:31.587Z,1.73
2019-03-15T02:29:00.412Z,2.23
2019-03-15T02:31:29.346Z,1.50
2019-03-15T02:33:58.241Z,2.17
2019-03-15T02:36:26.800Z,1.80
2019-03-15T02:38:55.918Z,3.10
2019-03-15T02:41:24.881Z,2.00
2019-03-15T02:43:53.832Z,1.70
2019-03-15T02:46:22.817Z,1.93
2019-03-15T02:48:51.914Z,2.20
2019-03-15T02:51:20.898Z,2.03
2019-03-15T02:53:49.929Z,1.70
2019-03-15T02:56:18.834Z,2.23
2019-03-15T02:58:47.836Z,1.70
2019-03-15T03:01:16.921Z,2.20
2019-03-15T03:03:47.193Z,1.90
2019-03-15T03:06:15.911Z,1.90
2019-03-15T03:08:44.890Z,3.00
2019-03-15T03:11:14.191Z,1.97
2019-03-15T03:13:43.468Z,2.77
2019-03-15T03:16:12.621Z,2.33
2019-03-15T03:18:41.594Z,2.10
2019-03-15T03:21:10.893Z,2.37
2019-03-15T03:23:39.884Z,2.60
2019-03-15T03:26:08.853Z,3.37
2019-03-15T03:28:37.785Z,2.57
2019-03-15T03:31:06.784Z,2.70
2019-03-15T03:33:35.316Z,2.60
2019-03-15T03:36:03.911Z,3.27
2019-03-15T03:38:32.864Z,2.73
2019-03-15T03:41:01.855Z,3.47
2019-03-15T03:43:30.916Z,3.33
2019-03-15T03:45:59.879Z,2.63
2019-03-15T03:48:28.927Z,3.90
2019-03-15T03:51:00.019Z,3.10
2019-03-15T03:53:28.674Z,3.30
2019-03-15T03:55:57.585Z,2.93
2019-03-15T03:58:26.048Z,2.60
2019-03-15T04:00:55.194Z,3.10
2019-03-15T04:03:24.218Z,3.23
2019-03-15T04:05:53.261Z,5.00
2019-03-15T04:08:24.100Z,1.80
2019-03-15T04:10:53.176Z,3.20
2019-03-15T04:13:22.060Z,1.53
2019-03-15T04:15:50.991Z,2.23
2019-03-15T04:18:20.076Z,2.07
2019-03-15T04:20:49.233Z,1.80
2019-03-15T04:23:18.208Z,2.23
2019-03-15T04:25:46.699Z,2.83
2019-03-15T04:28:15.782Z,2.23
2019-03-15T04:30:44.236Z,2.30
2019-03-15T04:33:13.228Z,3.13
2019-03-15T04:35:42.393Z,3.23
2019-03-15T04:38:11.290Z,3.37
2019-03-15T04:40:40.276Z,3.53
2019-03-15T04:43:09.239Z,3.23
2019-03-15T04:45:38.242Z,3.20
2019-03-15T04:48:07.238Z,2.67
2019-03-15T04:50:36.443Z,2.90
2019-03-15T04:53:05.411Z,2.37
2019-03-15T04:55:34.430Z,2.50
2019-03-15T04:58:03.502Z,2.73
2019-03-15T05:00:32.708Z,2.60
2019-03-15T05:03:01.658Z,3.13
2019-03-15T05:05:30.832Z,3.23
2019-03-15T05:07:59.939Z,3.37
2019-03-15T05:10:28.874Z,3.10
2019-03-15T05:12:58.284Z,1.40
2019-03-15T05:15:27.398Z,3.50
2019-03-15T05:17:56.375Z,3.07
2019-03-15T05:20:25.444Z,3.40
2019-03-15T05:22:54.628Z,3.20
2019-03-15T05:25:23.661Z,2.93
2019-03-15T05:27:52.636Z,2.83
2019-03-15T05:30:21.700Z,3.20
2019-03-15T05:32:50.954Z,2.93
2019-03-15T05:35:19.920Z,3.40
2019-03-15T05:37:48.509Z,2.70
2019-03-15T05:40:17.409Z,2.67
2019-03-15T05:42:46.356Z,2.63
2019-03-15T05:45:15.401Z,3.07
2019-03-15T05:47:43.967Z,2.50
2019-03-15T05:50:12.560Z,2.60
2019-03-15T05:52:41.105Z,3.17
2019-03-15T05:55:10.281Z,3.37
2019-03-15T05:57:39.215Z,3.03
2019-03-15T06:00:10.091Z,3.00
2019-03-15T06:02:39.080Z,3.10
2019-03-15T06:05:08.921Z,3.70
2019-03-15T06:07:38.144Z,4.40
2019-03-15T06:10:07.148Z,3.97
2019-03-15T06:12:36.130Z,3.20
2019-03-15T06:15:05.265Z,3.40
2019-03-15T06:17:34.320Z,3.40
2019-03-15T06:20:06.326Z,3.53
2019-03-15T06:22:34.113Z,3.43
2019-03-15T06:25:02.670Z,4.07
2019-03-15T06:27:31.422Z,3.30
2019-03-15T06:30:00.548Z,3.00
2019-03-15T06:32:29.765Z,3.40
2019-03-15T06:34:58.716Z,3.30
2019-03-15T06:37:27.776Z,3.73
2019-03-15T06:39:56.825Z,3.50
2019-03-15T06:42:25.792Z,1.87
2019-03-15T06:44:58.226Z,1.70
2019-03-15T06:47:25.705Z,3.13
2019-03-15T06:49:54.625Z,2.80
2019-03-15T06:52:23.609Z,2.53
2019-03-15T06:54:52.572Z,2.27
2019-03-15T06:57:21.601Z,1.80
2019-03-15T06:59:50.480Z,1.97
2019-03-15T07:02:19.780Z,3.03
2019-03-15T07:04:48.756Z,1.13
2019-03-15T07:07:17.780Z,1.43
2019-03-15T07:09:46.721Z,0.90
2019-03-15T07:12:15.661Z,1.30
2019-03-15T07:14:44.623Z,1.80
2019-03-15T07:17:14.721Z,1.20
2019-03-15T07:19:43.979Z,1.80
2019-03-15T07:22:12.967Z,1.80
2019-03-15T07:24:43.772Z,1.00
2019-03-15T07:27:13.584Z,1.10
2019-03-15T07:29:42.853Z,1.40
2019-03-15T07:32:11.898Z,0.90
2019-03-15T07:34:41.540Z,1.20
2019-03-15T07:37:10.707Z,0.83
2019-03-15T07:39:39.680Z,0.97
2019-03-15T07:42:08.716Z,0.93
2019-03-15T07:44:37.956Z,1.00
2019-03-15T07:47:06.889Z,1.40
2019-03-15T07:49:35.940Z,1.00
2019-03-15T07:52:04.931Z,0.90
2019-03-15T07:54:38.274Z,0.83
2019-03-15T07:57:04.596Z,0.90
2019-03-15T07:59:33.093Z,0.57
2019-03-15T08:02:02.244Z,1.03
2019-03-15T08:04:31.212Z,0.90
2019-03-15T08:07:00.321Z,0.97
2019-03-15T08:09:29.293Z,0.90
2019-03-15T08:11:58.361Z,0.97
2019-03-15T08:14:26.959Z,0.70
2019-03-15T08:16:55.932Z,0.93
2019-03-15T08:19:25.041Z,1.10
2019-03-15T08:21:56.447Z,0.83
2019-03-15T08:24:24.288Z,1.57
2019-03-15T08:26:53.244Z,1.00
2019-03-15T08:29:22.145Z,0.90
2019-03-15T08:31:51.273Z,1.30
2019-03-15T08:34:20.369Z,1.30
2019-03-15T08:36:49.316Z,1.10
2019-03-15T08:39:18.419Z,0.70
2019-03-15T08:41:46.936Z,1.23
2019-03-15T08:44:15.431Z,1.00
2019-03-15T08:46:43.906Z,1.27
2019-03-15T08:49:12.938Z,1.20
2019-03-15T08:51:41.837Z,0.90
2019-03-15T08:54:10.832Z,1.43
2019-03-15T08:56:39.440Z,1.40
2019-03-15T08:59:08.483Z,1.13
2019-03-15T09:01:36.943Z,1.50
2019-03-15T09:04:06.111Z,1.77
2019-03-15T09:06:34.761Z,1.40
2019-03-15T09:09:04.426Z,0.93
2019-03-15T09:11:33.452Z,1.30
2019-03-15T09:14:02.484Z,1.30
2019-03-15T09:16:31.669Z,1.30
2019-03-15T09:19:00.714Z,1.53
2019-03-15T09:21:30.832Z,1.27
2019-03-15T09:23:59.838Z,1.30
2019-03-15T09:26:28.891Z,1.53
2019-03-15T09:28:57.348Z,1.40
2019-03-15T09:31:25.965Z,1.47
2019-03-15T09:33:55.033Z,1.13
2019-03-15T09:36:24.042Z,1.90
2019-03-15T09:38:53.101Z,1.00
2019-03-15T09:41:32.073Z,1.47
2019-03-15T09:43:52.822Z,1.60
2019-03-15T09:46:21.465Z,3.60
2019-03-15T09:48:50.425Z,2.37
2019-03-15T09:51:19.086Z,1.90
2019-03-15T09:53:47.623Z,1.90
2019-03-15T09:56:16.689Z,1.53
2019-03-15T09:58:45.729Z,1.00
2019-03-15T10:01:28.274Z,1.63
2019-03-15T10:03:45.745Z,1.27
2019-03-15T10:06:19.276Z,1.90
2019-03-15T10:08:45.741Z,0.90
2019-03-15T10:11:14.945Z,1.23
2019-03-15T10:13:43.948Z,3.30
2019-03-15T10:16:13.084Z,1.47
2019-03-15T10:18:42.165Z,1.43
2019-03-15T10:21:10.838Z,1.67
2019-03-15T10:23:40.018Z,1.40
2019-03-15T10:26:08.990Z,1.70
2019-03-15T10:28:37.696Z,1.00
2019-03-15T10:31:08.352Z,1.30
2019-03-15T10:33:49.521Z,1.60
2019-03-15T10:36:07.651Z,1.20
2019-03-15T10:38:36.662Z,1.17
2019-03-15T10:41:05.708Z,0.83
2019-03-15T10:43:34.730Z,1.30
2019-03-15T10:46:06.201Z,1.37
2019-03-15T10:48:34.549Z,1.80
2019-03-15T10:51:03.601Z,1.23
2019-03-15T10:53:32.856Z,0.53
2019-03-15T10:56:01.954Z,0.90
2019-03-15T10:58:30.500Z,1.10
2019-03-15T11:00:59.473Z,0.77
2019-03-15T11:03:28.617Z,0.90
2019-03-15T11:05:57.626Z,1.33
2019-03-15T11:08:26.563Z,1.30
2019-03-15T11:10:55.266Z,1.20
2019-03-15T11:13:24.335Z,1.40
2019-03-15T11:15:53.426Z,1.30
2019-03-15T11:18:22.392Z,0.97
2019-03-15T11:20:50.932Z,1.00
2019-03-15T11:23:20.090Z,1.60
2019-03-15T11:25:49.095Z,1.07
2019-03-15T11:28:18.101Z,1.20
2019-03-15T11:30:47.491Z,1.50
2019-03-15T11:33:16.497Z,1.10
2019-03-15T11:35:45.517Z,0.80
2019-03-15T11:38:14.508Z,0.90
2019-03-15T11:40:43.444Z,0.70
2019-03-15T11:43:12.417Z,0.70
2019-03-15T11:45:41.509Z,0.60
2019-03-15T11:48:10.477Z,1.03
2019-03-15T11:50:39.474Z,0.60
2019-03-15T11:53:08.094Z,0.60
2019-03-15T11:55:37.096Z,0.60
2019-03-15T11:58:05.785Z,0.70
2019-03-15T12:00:35.026Z,0.60
2019-03-15T12:03:04.124Z,0.50
2019-03-15T12:05:33.140Z,0.50
2019-03-15T12:08:02.134Z,0.80
2019-03-15T12:10:30.737Z,0.50
2019-03-15T12:12:59.628Z,0.70
2019-03-15T12:15:28.374Z,0.70
2019-03-15T12:17:57.509Z,0.53
2019-03-15T12:20:26.709Z,1.00
2019-03-15T12:22:55.747Z,0.93
2019-03-15T12:25:24.701Z,0.53
2019-03-15T12:27:53.605Z,0.50
2019-03-15T12:30:22.577Z,0.50
2019-03-15T12:32:51.965Z,0.50
2019-03-15T12:35:20.917Z,0.70
2019-03-15T12:37:50.073Z,0.90
2019-03-15T12:40:18.589Z,0.70
2019-03-15T12:42:47.789Z,0.50
2019-03-15T12:45:16.754Z,0.67
2019-03-15T12:47:46.074Z,0.60
2019-03-15T12:50:15.204Z,0.50
2019-03-15T12:52:48.596Z,0.80
2019-03-15T12:55:15.053Z,0.70
2019-03-15T12:57:43.621Z,0.60
2019-03-15T13:00:13.281Z,0.80
2019-03-15T13:02:42.364Z,0.60
2019-03-15T13:05:11.548Z,0.50
2019-03-15T13:07:40.743Z,0.70
2019-03-15T13:10:12.293Z,0.50
2019-03-15T13:12:41.388Z,0.50
2019-03-15T13:15:12.200Z,2.50
2019-03-15T13:17:41.307Z,0.80
2019-03-15T13:20:10.876Z,1.10
2019-03-15T13:22:39.948Z,0.60
2019-03-15T13:25:09.268Z,0.70
2019-03-15T13:27:38.367Z,0.70
2019-03-15T13:30:07.173Z,0.70
2019-03-15T13:32:36.493Z,0.90
2019-03-15T13:35:05.493Z,0.80
2019-03-15T13:37:34.473Z,0.57
2019-03-15T13:40:03.540Z,1.17
2019-03-15T13:42:32.493Z,1.00
2019-03-15T13:45:01.486Z,0.77
2019-03-15T13:47:30.434Z,0.50
2019-03-15T13:49:59.486Z,0.60
2019-03-15T13:52:28.469Z,0.57
2019-03-15T13:54:57.598Z,2.00
2019-03-15T13:57:27.353Z,0.60
2019-03-15T13:59:55.896Z,0.60
2019-03-15T14:02:24.888Z,0.50
2019-03-15T14:04:53.903Z,0.70
2019-03-15T14:07:22.428Z,0.80
2019-03-15T14:09:51.369Z,0.90
2019-03-15T14:12:20.454Z,0.70
2019-03-15T14:14:49.532Z,0.67
2019-03-15T14:17:18.063Z,0.73
2019-03-15T14:19:46.504Z,0.60
2019-03-15T14:22:15.564Z,0.50
2019-03-15T14:24:44.573Z,0.53
2019-03-15T14:27:13.553Z,0.50
2019-03-15T14:29:42.661Z,0.50
2019-03-15T14:32:11.568Z,0.60
2019-03-15T14:34:40.606Z,0.73
2019-03-15T14:37:10.406Z,1.40
2019-03-15T14:39:40.009Z,0.90
2019-03-15T14:42:08.623Z,0.57
2019-03-15T14:44:37.236Z,0.50
2019-03-15T14:47:06.299Z,0.50
2019-03-15T14:49:38.088Z,0.80
2019-03-15T14:52:06.292Z,0.80
2019-03-15T14:54:35.280Z,0.80
2019-03-15T14:57:04.589Z,0.60
2019-03-15T14:59:33.596Z,0.60
2019-03-15T15:02:02.667Z,0.60
2019-03-15T15:04:31.755Z,0.80
2019-03-15T15:07:00.750Z,1.07
2019-03-15T15:09:29.705Z,0.63
2019-03-15T15:11:58.963Z,0.50
2019-03-15T15:14:27.961Z,0.70
2019-03-15T15:16:56.976Z,0.90
2019-03-15T15:19:25.978Z,0.80
2019-03-15T15:21:54.696Z,0.90
2019-03-15T15:24:23.250Z,0.63
2019-03-15T15:26:52.228Z,0.50
2019-03-15T15:29:22.178Z,0.50
2019-03-15T15:31:51.466Z,0.57
2019-03-15T15:34:20.518Z,0.50
2019-03-15T15:36:49.102Z,0.53
2019-03-15T15:39:17.860Z,0.47
2019-03-15T15:41:46.880Z,0.50
2019-03-15T15:44:17.510Z,0.60
2019-03-15T15:46:46.053Z,1.33
2019-03-15T15:49:15.188Z,0.50
2019-03-15T15:51:44.221Z,0.60
2019-03-15T15:54:13.222Z,0.40
2019-03-15T15:56:42.353Z,0.50
2019-03-15T15:59:11.427Z,0.50
2019-03-15T16:01:39.988Z,0.40
2019-03-15T16:04:09.150Z,0.50
2019-03-15T16:06:38.257Z,0.53
2019-03-15T16:09:08.183Z,0.50
2019-03-15T16:11:37.124Z,0.50
2019-03-15T16:14:06.233Z,0.50
2019-03-15T16:16:35.217Z,0.90
2019-03-15T16:19:04.442Z,0.50
2019-03-15T16:21:33.353Z,0.50
2019-03-15T16:24:02.438Z,0.60
2019-03-15T16:26:31.424Z,0.50
2019-03-15T16:29:00.458Z,0.50
2019-03-15T16:31:29.400Z,1.57
2019-03-15T16:33:58.451Z,0.73
2019-03-15T16:36:27.128Z,0.60
2019-03-15T16:38:56.127Z,0.50
2019-03-15T16:41:25.182Z,0.50
2019-03-15T16:43:55.778Z,0.50
2019-03-15T16:46:25.104Z,0.60
2019-03-15T16:48:54.222Z,0.60
2019-03-15T16:51:23.268Z,0.80
2019-03-15T16:53:53.762Z,0.83
2019-03-15T16:56:22.846Z,0.70
2019-03-15T16:58:51.963Z,0.60
2019-03-15T17:01:21.307Z,0.50
2019-03-15T17:03:50.280Z,0.50
2019-03-15T17:06:18.879Z,0.67
2019-03-15T17:08:47.933Z,0.60
2019-03-15T17:11:17.064Z,0.70
2019-03-15T17:13:46.111Z,0.50
2019-03-15T17:16:15.301Z,0.63
2019-03-15T17:18:44.445Z,3.50
2019-03-15T17:21:13.925Z,0.70
2019-03-15T17:23:42.978Z,0.50
2019-03-15T17:26:12.141Z,0.60
2019-03-15T17:28:41.355Z,0.70
2019-03-15T17:31:10.514Z,0.63
2019-03-15T17:33:39.224Z,0.67
2019-03-15T17:36:07.784Z,0.50
2019-03-15T17:38:36.382Z,0.40
2019-03-15T17:41:05.374Z,0.50
2019-03-15T17:43:34.005Z,0.50
2019-03-15T17:46:03.014Z,0.50
2019-03-15T17:48:32.122Z,0.70
2019-03-15T17:51:01.200Z,0.90
2019-03-15T17:53:32.558Z,0.60
2019-03-15T17:56:01.133Z,0.63
2019-03-15T17:58:30.259Z,0.57
2019-03-15T18:00:58.800Z,0.80
2019-03-15T18:03:27.491Z,0.63
2019-03-15T18:05:56.830Z,0.50
2019-03-15T18:08:25.916Z,0.73
2019-03-15T18:10:54.992Z,0.60
2019-03-15T18:13:23.613Z,0.53
2019-03-15T18:15:52.624Z,0.63
2019-03-15T18:18:22.249Z,0.50
2019-03-15T18:20:51.386Z,0.80
2019-03-15T18:23:20.455Z,0.53
2019-03-15T18:25:49.818Z,0.50
2019-03-15T18:28:18.994Z,0.80
2019-03-15T18:30:48.101Z,0.53
2019-03-15T18:33:17.347Z,0.50
2019-03-15T18:35:46.549Z,0.90
2019-03-15T18:38:15.520Z,0.63
2019-03-15T18:40:44.506Z,0.60
2019-03-15T18:43:13.616Z,0.57
2019-03-15T18:45:42.670Z,0.60
2019-03-15T18:48:11.930Z,0.60
2019-03-15T18:50:41.049Z,0.50
2019-03-15T18:53:09.693Z,0.60
2019-03-15T18:55:38.827Z,0.70
2019-03-15T18:58:07.929Z,0.50
2019-03-15T19:00:37.034Z,0.50
2019-03-15T19:03:06.105Z,0.60
2019-03-15T19:05:35.377Z,0.50
2019-03-15T19:08:04.461Z,0.47
2019-03-15T19:10:33.574Z,0.70
2019-03-15T19:13:02.652Z,0.60
2019-03-15T19:15:31.683Z,0.53
2019-03-15T19:18:00.765Z,0.70
2019-03-15T19:20:29.949Z,0.40
2019-03-15T19:22:59.099Z,0.53
2019-03-15T19:25:28.193Z,0.80
2019-03-15T19:27:57.402Z,0.60
2019-03-15T19:30:26.661Z,0.93
2019-03-15T19:32:55.794Z,0.60
2019-03-15T19:35:24.440Z,0.50
2019-03-15T19:37:55.397Z,0.60
2019-03-15T19:40:24.411Z,1.00
2019-03-15T19:42:53.528Z,0.73
2019-03-15T19:45:22.623Z,0.57
2019-03-15T19:47:51.335Z,0.60
2019-03-15T19:50:20.380Z,0.67
2019-03-15T19:52:49.673Z,0.93
2019-03-15T19:55:18.761Z,0.60
2019-03-15T19:57:47.899Z,0.70
2019-03-15T20:00:17.000Z,0.50
2019-03-15T20:02:46.069Z,0.60
2019-03-15T20:05:15.389Z,0.50
2019-03-15T20:07:44.713Z,0.70
2019-03-15T20:10:16.446Z,0.70
2019-03-15T20:12:44.917Z,0.80
2019-03-15T20:15:13.977Z,0.70
2019-03-15T20:17:43.146Z,0.70
2019-03-15T20:20:14.230Z,0.50
2019-03-15T20:22:42.960Z,0.87
2019-03-15T20:25:12.466Z,0.50
2019-03-15T20:27:41.610Z,0.70
2019-03-15T20:30:21.012Z,1.10
2019-03-15T20:32:44.481Z,0.60
2019-03-15T20:35:13.117Z,0.60
2019-03-15T20:37:42.101Z,0.70
2019-03-15T20:40:11.280Z,0.60
2019-03-15T20:42:39.828Z,0.50
2019-03-15T20:45:10.810Z,0.50
2019-03-15T20:47:39.939Z,0.70
2019-03-15T20:50:10.031Z,0.70
2019-03-15T20:52:38.917Z,0.50
2019-03-15T20:55:08.185Z,0.77
2019-03-15T20:57:37.321Z,0.60
2019-03-15T21:00:07.813Z,0.60
2019-03-15T21:02:37.005Z,0.60
2019-03-15T21:05:08.052Z,0.60
2019-03-15T21:07:37.330Z,0.57
2019-03-15T21:10:06.877Z,0.90
2019-03-15T21:12:35.877Z,0.70
2019-03-15T21:15:06.121Z,0.70
2019-03-15T21:17:36.989Z,0.50
2019-03-15T21:20:06.561Z,0.57
2019-03-15T21:22:37.041Z,0.50
2019-03-15T21:25:06.334Z,0.70
2019-03-15T21:27:35.568Z,0.60
2019-03-15T21:30:05.541Z,1.10
2019-03-15T21:32:34.761Z,0.70
2019-03-15T21:35:04.045Z,0.80
2019-03-15T21:37:33.184Z,0.70
2019-03-15T21:40:02.396Z,0.77
2019-03-15T21:42:31.453Z,0.70
2019-03-15T21:45:00.001Z,0.77
2019-03-15T21:47:29.105Z,0.70
2019-03-15T21:49:58.397Z,0.80
2019-03-15T21:52:26.986Z,0.70
2019-03-15T21:54:56.058Z,0.80
2019-03-15T21:57:25.170Z,0.80
2019-03-15T21:59:54.241Z,0.53
2019-03-15T22:02:23.380Z,0.63
2019-03-15T22:04:52.492Z,0.73
2019-03-15T22:07:21.371Z,0.70
2019-03-15T22:09:49.964Z,0.73
2019-03-15T22:12:19.017Z,0.80
2019-03-15T22:14:47.997Z,0.60
2019-03-15T22:17:16.590Z,0.60
2019-03-15T22:19:46.818Z,0.70
2019-03-15T22:22:15.462Z,0.60
2019-03-15T22:24:44.477Z,0.90
2019-03-15T22:27:13.010Z,0.67
2019-03-15T22:29:53.056Z,0.60
2019-03-15T22:32:12.993Z,0.60
2019-03-15T22:34:41.617Z,0.80
2019-03-15T22:37:10.713Z,2.37
2019-03-15T22:39:39.639Z,0.57
2019-03-15T22:42:08.737Z,0.50
2019-03-15T22:44:37.832Z,0.60
2019-03-15T22:47:06.849Z,0.60
2019-03-15T22:49:35.985Z,0.83
2019-03-15T22:52:05.059Z,0.50
2019-03-15T22:54:34.102Z,0.60
2019-03-15T22:57:03.204Z,0.70
2019-03-15T22:59:32.204Z,0.70
2019-03-15T23:02:00.880Z,0.50
2019-03-15T23:04:29.945Z,0.50
2019-03-15T23:06:59.104Z,0.50
2019-03-15T23:09:28.105Z,0.70
2019-03-15T23:11:57.081Z,0.50
2019-03-15T23:14:26.209Z,0.70
2019-03-15T23:16:55.298Z,0.60
2019-03-15T23:19:24.017Z,0.40
2019-03-15T23:21:53.057Z,0.67
2019-03-15T23:24:22.140Z,0.50
2019-03-15T23:26:50.737Z,0.60
2019-03-15T23:29:19.793Z,0.60
2019-03-15T23:31:48.804Z,0.63
2019-03-15T23:34:17.853Z,0.80
2019-03-15T23:36:46.860Z,0.50
2019-03-15T23:39:15.920Z,0.73
2019-03-15T23:41:45.083Z,0.70
2019-03-15T23:44:13.619Z,0.50
2019-03-15T23:46:42.774Z,0.57
2019-03-15T23:49:11.729Z,0.70
2019-03-15T23:51:40.794Z,0.60
2019-03-15T23:54:09.889Z,0.90
2019-03-15T23:56:38.957Z,0.50
2019-03-15T23:59:07.988Z,0.40
